Time;durP1;ratioP1;P1;durP2;ratioP2;P2;SDS_P1;SDS_P2;PMS_P1;PMS_P2;Temp;Humidity;BMP_temperature;BMP_pressure;BME280_temperature;BME280_humidity;BME280_pressure;Samples;Min_cycle;Max_cycle;Signal;HPM_P1;HPM_P2
2024/03/20 00:01:28;;;;;;;15.05;11.48;;;;;;;9.06;100.00;101839.19;10273237;28;20102;-74
2024/03/20 00:06:23;;;;;;;14.85;11.65;;;;;;;9.00;100.00;101841.13;10273386;28;20036;-75
2024/03/20 00:11:19;;;;;;;20.00;12.70;;;;;;;8.97;100.00;101841.69;10273736;28;20037;-78
2024/03/20 00:16:15;;;;;;;16.23;10.60;;;;;;;8.98;100.00;101826.97;10268789;28;20076;-77
2024/03/20 00:21:11;;;;;;;20.48;12.23;;;;;;;9.00;100.00;101824.75;10264922;28;20048;-75
2024/03/20 00:26:06;;;;;;;14.45;10.38;;;;;;;9.00;100.00;101818.47;10272296;28;20048;-76
2024/03/20 00:31:02;;;;;;;16.83;11.25;;;;;;;8.99;100.00;101823.13;10271383;28;20045;-76
2024/03/20 00:35:57;;;;;;;17.92;11.63;;;;;;;8.96;100.00;101820.97;10273284;28;20037;-76
2024/03/20 00:40:53;;;;;;;16.48;11.93;;;;;;;8.98;100.00;101818.78;10271454;28;20040;-76
2024/03/20 00:45:49;;;;;;;15.95;11.77;;;;;;;8.92;100.00;101817.16;10272904;28;20127;-75
2024/03/20 00:50:45;;;;;;;18.55;12.18;;;;;;;8.85;100.00;101824.84;10267775;28;20056;-75
2024/03/20 00:55:43;;;;;;;18.02;12.30;;;;;;;8.86;100.00;101823.72;10270177;28;20071;-75
2024/03/20 01:00:39;;;;;;;20.33;11.05;;;;;;;8.88;100.00;101827.00;10270500;28;20529;-76
2024/03/20 01:05:35;;;;;;;17.45;12.30;;;;;;;8.90;100.00;101824.81;10268940;28;20072;-76
2024/03/20 01:10:30;;;;;;;18.52;11.60;;;;;;;8.92;100.00;101810.91;10274464;28;20076;-75
2024/03/20 01:15:27;;;;;;;21.15;13.10;;;;;;;8.92;100.00;101811.72;10263393;28;20047;-75
2024/03/20 01:20:22;;;;;;;15.73;11.32;;;;;;;8.91;100.00;101814.72;10267375;28;20041;-75
2024/03/20 01:25:18;;;;;;;16.45;11.25;;;;;;;8.89;100.00;101817.72;10260562;28;20088;-74
2024/03/20 01:30:14;;;;;;;18.58;11.85;;;;;;;8.89;100.00;101817.72;10270226;28;20135;-75
2024/03/20 01:35:10;;;;;;;18.90;11.93;;;;;;;8.88;100.00;101813.34;10265065;28;20081;-74
2024/03/20 01:40:06;;;;;;;15.10;11.77;;;;;;;8.88;100.00;101816.09;10271885;28;20098;-75
2024/03/20 01:45:17;;;;;;;18.48;12.48;;;;;;;8.88;100.00;101818.81;10268464;28;20088;-74
2024/03/20 01:50:14;;;;;;;16.83;11.88;;;;;;;8.90;100.00;101824.81;10267021;28;20088;-75
2024/03/20 01:55:09;;;;;;;16.48;11.70;;;;;;;8.88;100.00;101820.72;10267375;28;20095;-74
2024/03/20 02:00:06;;;;;;;18.75;13.55;;;;;;;8.77;100.00;101820.78;10269512;28;20053;-75
2024/03/20 02:05:01;;;;;;;19.42;13.73;;;;;;;8.63;100.00;101831.47;10266786;28;20213;-73
2024/03/20 02:09:57;;;;;;;18.77;13.05;;;;;;;8.72;100.00;101819.97;10267551;28;20055;-73
2024/03/20 02:14:52;;;;;;;17.42;13.77;;;;;;;8.60;100.00;101812.91;10259631;28;20044;-73
2024/03/20 02:19:48;;;;;;;19.27;13.63;;;;;;;8.55;100.00;101832.03;10261442;28;20037;-74
2024/03/20 02:24:43;;;;;;;18.42;14.80;;;;;;;8.59;100.00;101818.66;10254688;28;20041;-73
2024/03/20 02:29:39;;;;;;;20.13;13.50;;;;;;;8.66;100.00;101796.53;10266064;28;20041;-74
2024/03/20 02:34:35;;;;;;;17.85;13.48;;;;;;;8.57;100.00;101801.75;10281484;28;20075;-78
2024/03/20 02:39:30;;;;;;;18.70;12.68;;;;;;;8.57;100.00;101805.31;10263116;28;20445;-78
2024/03/20 02:44:26;;;;;;;21.45;13.85;;;;;;;8.51;100.00;101806.41;10263211;28;20041;-77
2024/03/20 02:49:22;;;;;;;21.50;14.40;;;;;;;8.61;100.00;101811.03;10266369;28;20041;-77
2024/03/20 02:54:17;;;;;;;21.48;14.00;;;;;;;8.58;100.00;101806.09;10264210;28;20412;-77
2024/03/20 02:59:13;;;;;;;16.73;13.25;;;;;;;8.63;100.00;101804.19;10266716;28;20597;-78
2024/03/20 03:04:08;;;;;;;17.27;12.98;;;;;;;8.60;100.00;101799.28;10270420;28;20036;-77
2024/03/20 03:09:08;;;;;;;23.55;13.55;;;;;;;8.61;100.00;101798.22;10264352;28;20120;-77
2024/03/20 03:14:03;;;;;;;19.67;13.85;;;;;;;8.63;100.00;101793.28;10263538;28;20076;-78
2024/03/20 03:18:59;;;;;;;19.80;13.40;;;;;;;8.46;100.00;101798.25;10267474;28;20044;-76
2024/03/20 03:23:55;;;;;;;25.90;13.90;;;;;;;8.45;100.00;101798.50;10263614;28;20048;-79
2024/03/20 03:28:50;;;;;;;20.08;13.23;;;;;;;8.35;100.00;101797.41;10273796;28;20037;-80
2024/03/20 03:33:47;;;;;;;21.08;13.75;;;;;;;8.29;100.00;101798.53;10275866;28;20049;-78
2024/03/20 03:38:43;;;;;;;17.63;13.57;;;;;;;8.32;100.00;101791.72;10276240;28;20524;-77
2024/03/20 03:43:38;;;;;;;20.27;14.27;;;;;;;8.30;100.00;101804.78;10271317;28;20083;-78
2024/03/20 03:48:34;;;;;;;19.40;13.35;;;;;;;8.30;100.00;101800.16;10280513;28;20041;-75
2024/03/20 03:53:29;;;;;;;22.70;13.07;;;;;;;8.24;100.00;101806.72;10270296;28;20045;-77
2024/03/20 03:58:25;;;;;;;18.10;13.93;;;;;;;8.25;100.00;101802.91;10277303;28;20132;-76
2024/03/20 04:03:27;;;;;;;20.98;14.27;;;;;;;8.27;100.00;101799.91;10269535;28;20048;-76
2024/03/20 04:08:22;;;;;;;20.17;13.93;;;;;;;8.20;100.00;101811.91;10278945;28;20052;-76
2024/03/20 04:13:18;;;;;;;21.90;14.68;;;;;;;8.19;100.00;101806.72;10270810;28;20120;-77
2024/03/20 04:18:17;;;;;;;17.85;13.07;;;;;;;8.22;100.00;101803.47;10278778;28;20051;-76
2024/03/20 04:23:12;;;;;;;20.58;14.30;;;;;;;8.21;100.00;101801.81;10273143;28;20077;-76
2024/03/20 04:28:08;;;;;;;19.60;13.68;;;;;;;8.31;100.00;101806.41;10274669;28;20048;-76
2024/03/20 04:33:04;;;;;;;20.08;14.07;;;;;;;8.35;100.00;101810.22;10269658;28;20047;-76
2024/03/20 04:38:00;;;;;;;18.33;13.43;;;;;;;8.32;100.00;101808.06;10263531;28;20036;-76
2024/03/20 04:42:56;;;;;;;19.08;14.73;;;;;;;8.31;100.00;101806.41;10269014;28;20520;-76
2024/03/20 04:47:51;;;;;;;20.55;14.90;;;;;;;8.30;100.00;101807.53;10276978;28;20124;-75
2024/03/20 04:52:47;;;;;;;18.48;13.45;;;;;;;8.33;100.00;101806.97;10271421;28;20515;-75
2024/03/20 04:57:42;;;;;;;19.73;14.38;;;;;;;8.31;100.00;101806.41;10267301;28;20508;-75
2024/03/20 05:02:38;;;;;;;22.45;13.50;;;;;;;8.27;100.00;101805.34;10259777;28;20037;-76
2024/03/20 05:07:34;;;;;;;21.33;14.98;;;;;;;8.31;100.00;101807.25;10270742;28;20057;-75
2024/03/20 05:12:30;;;;;;;18.75;14.65;;;;;;;8.34;100.00;101816.78;10268246;28;20041;-75
2024/03/20 05:17:26;;;;;;;19.15;13.77;;;;;;;8.32;100.00;101838.03;10264374;28;20091;-74
2024/03/20 05:22:21;;;;;;;19.23;14.80;;;;;;;8.33;100.00;101836.94;10260615;28;20126;-74
2024/03/20 05:27:18;;;;;;;25.38;15.70;;;;;;;8.45;100.00;101818.44;10258491;28;20538;-76
2024/03/20 05:32:13;;;;;;;20.45;15.18;;;;;;;8.47;100.00;101809.97;10268212;28;20041;-76
2024/03/20 05:37:09;;;;;;;20.10;15.10;;;;;;;8.41;100.00;101817.34;10257934;28;20123;-75
2024/03/20 05:42:05;;;;;;;18.60;14.35;;;;;;;8.31;100.00;101822.75;10256350;28;20060;-77
2024/03/20 05:47:02;;;;;;;22.75;16.13;;;;;;;8.47;100.00;101824.44;10258547;28;20111;-77
2024/03/20 05:51:57;;;;;;;21.05;15.23;;;;;;;8.44;100.00;101827.69;10258956;28;20057;-77
2024/03/20 05:56:53;;;;;;;18.90;14.68;;;;;;;8.45;100.00;101829.34;10265537;28;20041;-76
2024/03/20 06:01:49;;;;;;;26.63;16.02;;;;;;;8.51;100.00;101827.41;10259552;28;20037;-73
2024/03/20 06:06:45;;;;;;;25.55;16.73;;;;;;;8.57;100.00;101832.56;10252363;28;20052;-74
2024/03/20 06:11:42;;;;;;;21.17;15.13;;;;;;;8.61;100.00;101825.47;10264616;28;20080;-76
2024/03/20 06:16:38;;;;;;;22.63;15.60;;;;;;;8.61;100.00;101843.75;10263537;28;20068;-77
2024/03/20 06:21:34;;;;;;;26.63;16.38;;;;;;;8.61;100.00;101839.09;10267960;28;20135;-76
2024/03/20 06:26:30;;;;;;;24.70;16.25;;;;;;;8.66;100.00;101851.06;10269687;28;20075;-76
2024/03/20 06:31:26;;;;;;;21.10;15.65;;;;;;;8.72;100.00;101841.78;10262828;28;20072;-76
2024/03/20 06:36:21;;;;;;;25.30;16.60;;;;;;;8.74;100.00;101851.31;10264801;28;20124;-76
2024/03/20 06:41:17;;;;;;;27.73;17.88;;;;;;;8.82;100.00;101858.13;10266614;28;20041;-76
2024/03/20 06:46:14;;;;;;;24.25;17.83;;;;;;;8.79;100.00;101855.94;10251107;28;20462;-75
2024/03/20 06:51:10;;;;;;;24.02;18.25;;;;;;;8.82;100.00;101860.84;10254952;28;20064;-75
2024/03/20 06:56:05;;;;;;;28.17;18.27;;;;;;;8.76;100.00;101851.06;10262709;28;20041;-75
2024/03/20 07:01:02;;;;;;;24.95;16.77;;;;;;;8.78;100.00;101859.78;10274917;28;20393;-75
2024/03/20 07:05:58;;;;;;;30.88;19.55;;;;;;;8.81;100.00;101864.66;10270233;28;20037;-76
2024/03/20 07:10:53;;;;;;;23.48;17.98;;;;;;;8.68;100.00;101867.97;10277588;28;20497;-75
2024/03/20 07:15:49;;;;;;;32.28;19.45;;;;;;;8.74;100.00;101875.03;10271567;28;20492;-75
2024/03/20 07:20:45;;;;;;;24.67;18.80;;;;;;;8.97;100.00;101890.78;10274905;28;20411;-76
2024/03/20 07:25:40;;;;;;;24.77;18.80;;;;;;;9.18;100.00;101880.59;10275726;28;20549;-74
2024/03/20 07:30:36;;;;;;;28.48;19.23;;;;;;;9.29;100.00;101873.19;10275507;28;20067;-76
2024/03/20 07:35:44;;;;;;;24.60;19.33;;;;;;;9.41;100.00;101870.13;10264175;28;20044;-76
2024/03/20 07:40:40;;;;;;;27.42;18.80;;;;;;;9.40;100.00;101872.06;10272344;28;20497;-74
2024/03/20 07:45:36;;;;;;;24.45;19.35;;;;;;;9.63;100.00;101870.56;10278526;28;20060;-73
2024/03/20 07:50:32;;;;;;;23.02;18.25;;;;;;;9.71;100.00;101888.25;10270585;28;20844;-75
2024/03/20 07:55:28;;;;;;;29.15;19.77;;;;;;;9.84;100.00;101878.56;10268176;28;20054;-74
2024/03/20 08:00:31;;;;;;;30.15;20.17;;;;;;;9.68;100.00;101888.81;10276799;28;20045;-74
2024/03/20 08:05:27;;;;;;;30.48;20.38;;;;;;;9.80;100.00;101881.06;10272592;28;20068;-74
2024/03/20 08:10:24;;;;;;;25.92;19.65;;;;;;;10.07;100.00;101891.53;10259096;28;20052;-74
2024/03/20 08:15:20;;;;;;;31.75;19.90;;;;;;;10.19;100.00;101888.44;10267902;28;20052;-74
2024/03/20 08:20:15;;;;;;;26.55;18.85;;;;;;;10.42;100.00;101891.50;10268476;28;20075;-74
2024/03/20 08:25:11;;;;;;;25.77;19.35;;;;;;;10.69;100.00;101886.31;10271752;28;20102;-72
2024/03/20 08:30:08;;;;;;;25.08;19.40;;;;;;;10.92;100.00;101889.34;10279970;28;20067;-73
2024/03/20 08:35:07;;;;;;;25.20;19.70;;;;;;;11.08;100.00;101888.06;10274301;28;20056;-76
2024/03/20 08:40:04;;;;;;;24.35;19.48;;;;;;;11.22;100.00;101890.91;10271802;28;20835;-75
2024/03/20 08:45:02;;;;;;;25.25;19.98;;;;;;;11.37;100.00;101900.84;10266517;28;20092;-74
2024/03/20 08:49:57;;;;;;;28.85;20.50;;;;;;;11.55;100.00;101880.88;10272072;28;20068;-75
2024/03/20 08:54:53;;;;;;;30.92;20.35;;;;;;;11.54;100.00;101879.25;10280024;28;20052;-75
2024/03/20 08:59:48;;;;;;;31.52;21.23;;;;;;;11.57;100.00;101889.59;10268416;28;20032;-75
2024/03/20 09:04:44;;;;;;;29.08;23.15;;;;;;;11.30;100.00;101884.78;10268514;28;20485;-76
2024/03/20 09:09:39;;;;;;;34.33;23.40;;;;;;;11.47;100.00;101889.75;10271608;28;20049;-73
2024/03/20 09:14:35;;;;;;;38.53;23.30;;;;;;;11.89;100.00;101885.34;10264671;28;20090;-74
2024/03/20 09:19:31;;;;;;;34.30;23.63;;;;;;;12.29;100.00;101880.28;10273057;28;20644;-76
2024/03/20 09:24:27;;;;;;;32.35;23.75;;;;;;;12.17;100.00;101885.44;10260616;28;20072;-75
2024/03/20 09:29:22;;;;;;;31.55;22.83;;;;;;;12.53;100.00;101879.31;10264970;28;20049;-75
2024/03/20 09:34:19;;;;;;;33.83;23.95;;;;;;;12.60;100.00;101893.44;10269147;28;20036;-76
2024/03/20 09:39:14;;;;;;;37.47;25.23;;;;;;;12.59;100.00;101875.34;10278523;28;20033;-75
2024/03/20 09:44:13;;;;;;;31.45;23.92;;;;;;;12.59;100.00;101881.66;10268668;28;20037;-75
2024/03/20 09:49:08;;;;;;;32.92;23.73;;;;;;;12.99;100.00;101878.41;10271673;28;20060;-73
2024/03/20 09:54:04;;;;;;;30.98;23.90;;;;;;;13.52;100.00;101880.59;10271094;28;20115;-75
2024/03/20 09:59:00;;;;;;;35.08;24.60;;;;;;;13.91;100.00;101879.16;10265237;28;20061;-75
2024/03/20 10:03:56;;;;;;;34.45;23.40;;;;;;;13.97;100.00;101869.66;10268713;28;20044;-75
2024/03/20 10:08:52;;;;;;;31.92;23.83;;;;;;;14.42;100.00;101869.59;10266061;28;20118;-76
2024/03/20 10:13:48;;;;;;;30.88;22.27;;;;;;;13.70;100.00;101865.09;10269318;28;20076;-75
2024/03/20 10:18:44;;;;;;;31.58;22.33;;;;;;;14.07;100.00;101861.16;10266710;28;20045;-77
2024/03/20 10:23:42;;;;;;;30.48;23.95;;;;;;;14.45;100.00;101868.16;10268685;28;20072;-75
2024/03/20 10:28:38;;;;;;;31.13;24.05;;;;;;;15.15;100.00;101861.81;10259821;28;20069;-76
2024/03/20 10:33:35;;;;;;;37.50;25.33;;;;;;;15.07;100.00;101853.53;10267411;28;20048;-76
2024/03/20 10:38:34;;;;;;;37.70;23.23;;;;;;;15.31;100.00;101850.31;10267207;28;20552;-76
2024/03/20 10:43:30;;;;;;;32.58;22.33;;;;;;;15.36;100.00;101853.75;10282144;28;20064;-74
2024/03/20 10:48:26;;;;;;;31.75;21.55;;;;;;;15.82;100.00;101850.69;10280698;28;20051;-74
2024/03/20 10:53:24;;;;;;;33.67;22.42;;;;;;;15.67;100.00;101851.97;10285788;28;20095;-74
2024/03/20 10:58:23;;;;;;;36.00;21.13;;;;;;;15.36;100.00;101848.22;10279359;28;20037;-74
2024/03/20 11:03:51;;;;;;;32.38;21.38;;;;;;;15.33;100.00;101843.34;10280737;28;20065;-74
2024/03/20 11:09:07;;;;;;;29.45;21.40;;;;;;;16.40;100.00;101840.97;10277245;28;20045;-74
2024/03/20 11:14:06;;;;;;;30.85;22.33;;;;;;;15.70;100.00;101849.38;10270502;28;20081;-74
2024/03/20 11:19:06;;;;;;;28.90;21.92;;;;;;;16.75;100.00;101841.63;10276833;28;20076;-74
2024/03/20 11:24:05;;;;;;;31.33;22.40;;;;;;;17.67;100.00;101831.78;10280555;28;20076;-74
2024/03/20 11:29:02;;;;;;;30.98;22.08;;;;;;;18.20;100.00;101827.34;10280938;28;20420;-74
2024/03/20 11:33:58;;;;;;;29.80;22.83;;;;;;;18.23;100.00;101815.59;10278615;28;20071;-74
2024/03/20 11:38:54;;;;;;;35.10;23.65;;;;;;;17.88;100.00;101815.97;10275452;28;20082;-74
2024/03/20 11:43:49;;;;;;;38.20;24.70;;;;;;;17.52;100.00;101813.03;10275953;28;20048;-76
2024/03/20 11:48:46;;;;;;;31.73;23.35;;;;;;;17.08;100.00;101812.53;10276111;28;20588;-76
2024/03/20 11:53:42;;;;;;;34.00;24.80;;;;;;;17.77;100.00;101808.41;10271591;28;20041;-76
2024/03/20 11:58:38;;;;;;;34.25;23.17;;;;;;;18.20;100.00;101809.94;10273758;28;20037;-75
2024/03/20 12:03:38;;;;;;;31.58;23.63;;;;;;;17.84;100.00;101811.47;10273021;28;20525;-75
2024/03/20 12:08:34;;;;;;;34.08;23.17;;;;;;;17.97;100.00;101807.59;10266288;28;20045;-75
2024/03/20 12:13:30;;;;;;;31.25;23.50;;;;;;;17.80;100.00;101803.03;10274074;28;20068;-76
2024/03/20 12:18:25;;;;;;;31.08;21.65;;;;;;;18.60;100.00;101812.84;10273196;28;20136;-75
2024/03/20 12:23:21;;;;;;;34.42;21.33;;;;;;;18.53;100.00;101807.09;10273775;28;20037;-75
2024/03/20 12:28:16;;;;;;;28.38;21.75;;;;;;;17.44;100.00;101801.69;10252324;28;20151;-75
2024/03/20 12:33:12;;;;;;;26.10;18.20;;;;;;;17.19;100.00;101805.47;10270327;28;20385;-75
2024/03/20 12:38:08;;;;;;;27.20;18.92;;;;;;;17.19;100.00;101797.19;10271215;28;20407;-75
2024/03/20 12:43:04;;;;;;;26.35;19.25;;;;;;;17.51;100.00;101790.09;10271893;28;20056;-75
2024/03/20 12:48:00;;;;;;;25.08;19.67;;;;;;;17.96;100.00;101794.09;10263877;28;20040;-75
2024/03/20 12:52:55;;;;;;;23.48;17.65;;;;;;;16.91;100.00;101800.47;10265742;28;20037;-76
2024/03/20 12:57:51;;;;;;;20.50;16.67;;;;;;;16.28;100.00;101796.69;10266032;28;20128;-75
2024/03/20 13:02:47;;;;;;;21.80;16.98;;;;;;;15.89;100.00;101798.59;10266534;28;20407;-74
2024/03/20 13:07:43;;;;;;;19.45;15.82;;;;;;;15.40;100.00;101793.25;10273615;28;20575;-75
2024/03/20 13:12:39;;;;;;;20.17;15.32;;;;;;;15.26;100.00;101798.94;10268135;28;20036;-75
2024/03/20 13:17:35;;;;;;;17.55;14.27;;;;;;;15.22;100.00;101797.16;10271368;28;20055;-76
2024/03/20 13:22:32;;;;;;;15.38;13.40;;;;;;;15.09;100.00;101802.50;10266256;28;20087;-75
2024/03/20 13:27:28;;;;;;;17.38;13.85;;;;;;;14.79;100.00;101787.69;10265746;28;20112;-75
2024/03/20 13:32:30;;;;;;;19.05;14.25;;;;;;;14.70;100.00;101789.63;10267171;28;20464;-75
2024/03/20 13:37:27;;;;;;;21.30;14.63;;;;;;;14.73;100.00;101791.72;10270904;28;20088;-75
2024/03/20 13:47:41;;;;;;;22.65;16.73;;;;;;;15.25;100.00;101786.31;10248774;28;20037;-75
2024/03/20 13:52:36;;;;;;;22.25;17.25;;;;;;;15.25;100.00;101788.25;10267881;28;20524;-75
2024/03/20 13:57:32;;;;;;;25.67;19.33;;;;;;;15.03;100.00;101780.94;10266481;28;20064;-75
2024/03/20 14:02:28;;;;;;;22.75;18.48;;;;;;;14.71;100.00;101777.47;10275215;28;20052;-74
2024/03/20 14:07:24;;;;;;;29.25;17.60;;;;;;;14.73;100.00;101786.22;10263397;28;20491;-75
2024/03/20 14:12:20;;;;;;;21.70;16.38;;;;;;;14.70;100.00;101786.84;10267581;28;20513;-75
2024/03/20 14:17:18;;;;;;;24.75;17.58;;;;;;;15.02;100.00;101782.06;10269358;28;20045;-75
2024/03/20 14:22:15;;;;;;;24.23;17.48;;;;;;;15.07;100.00;101779.16;10263721;28;20060;-75
2024/03/20 14:27:12;;;;;;;24.88;18.90;;;;;;;14.99;100.00;101777.19;10269180;28;20442;-74
2024/03/20 14:32:11;;;;;;;25.58;17.38;;;;;;;15.02;100.00;101771.88;10266328;28;20044;-74
2024/03/20 14:37:09;;;;;;;23.98;18.27;;;;;;;14.99;100.00;101782.69;10268638;28;20037;-75
2024/03/20 14:42:08;;;;;;;22.17;18.15;;;;;;;15.05;100.00;101778.66;10264466;28;20040;-75
2024/03/20 14:47:10;;;;;;;24.60;18.08;;;;;;;14.87;100.00;101775.06;10272977;28;20048;-74
2024/03/20 14:52:13;;;;;;;26.48;18.00;;;;;;;15.00;100.00;101774.13;10262639;28;20041;-75
2024/03/20 14:57:09;;;;;;;;;;;;;;;14.98;100.00;101775.59;10268707;28;20520;-74
2024/03/20 15:02:16;;;;;;;24.17;18.40;;;;;;;16.66;100.00;101766.31;10266100;28;19972;-75
2024/03/20 15:07:14;;;;;;;26.70;18.70;;;;;;;17.04;100.00;101763.50;10266003;28;21040;-74
2024/03/20 15:12:12;;;;;;;23.75;18.95;;;;;;;17.75;100.00;101761.72;10265703;28;20493;-74
2024/03/20 15:17:09;;;;;;;29.98;18.98;;;;;;;16.88;100.00;101772.72;10271626;28;20539;-75
2024/03/20 15:22:06;;;;;;;27.13;19.52;;;;;;;15.97;100.00;101761.94;10269857;28;20114;-75
2024/03/20 15:27:03;;;;;;;25.67;19.77;;;;;;;15.72;100.00;101764.41;10270913;28;20041;-75
2024/03/20 15:31:59;;;;;;;30.50;19.50;;;;;;;15.26;100.00;101760.34;10274606;28;20040;-74
2024/03/20 15:36:55;;;;;;;26.70;18.58;;;;;;;15.33;100.00;101754.38;10272672;28;20034;-74
2024/03/20 15:41:51;;;;;;;25.58;18.45;;;;;;;15.09;100.00;101760.38;10269949;28;20083;-74
2024/03/20 15:46:49;;;;;;;26.77;18.75;;;;;;;14.76;100.00;101759.97;10266565;28;20124;-74
2024/03/20 15:51:44;;;;;;;20.85;16.95;;;;;;;14.69;100.00;101757.69;10269436;28;20041;-75
2024/03/20 15:56:42;;;;;;;27.73;18.98;;;;;;;14.71;100.00;101760.94;10276703;28;20040;-75
2024/03/20 16:01:38;;;;;;;26.25;17.95;;;;;;;14.62;100.00;101762.84;10274236;28;20064;-74
2024/03/20 16:06:35;;;;;;;23.50;17.33;;;;;;;14.53;100.00;101760.88;10269898;28;20076;-74
2024/03/20 16:11:31;;;;;;;22.73;17.98;;;;;;;14.49;100.00;101765.41;10272353;28;20065;-74
2024/03/20 16:16:26;;;;;;;22.10;16.63;;;;;;;14.42;100.00;101759.53;10269226;28;20051;-75
2024/03/20 16:21:24;;;;;;;21.83;18.23;;;;;;;14.33;100.00;101761.44;10265865;28;20038;-74
2024/03/20 16:26:19;;;;;;;23.75;18.10;;;;;;;14.18;100.00;101770.13;10270749;28;20064;-74
2024/03/20 16:31:16;;;;;;;23.60;17.58;;;;;;;14.12;100.00;101771.41;10271023;28;20041;-74
2024/03/20 16:36:11;;;;;;;23.00;17.52;;;;;;;14.16;100.00;101777.91;10271374;28;20074;-74
2024/03/20 16:41:07;;;;;;;21.13;16.95;;;;;;;13.99;100.00;101771.16;10258586;28;20090;-75
2024/03/20 16:46:03;;;;;;;24.63;18.55;;;;;;;13.85;100.00;101778.69;10271503;28;20056;-75
2024/03/20 16:50:58;;;;;;;23.63;18.92;;;;;;;13.72;100.00;101779.59;10270876;28;20191;-74
2024/03/20 16:55:55;;;;;;;25.45;18.08;;;;;;;13.58;100.00;101791.44;10267010;28;20102;-75
2024/03/20 17:00:51;;;;;;;25.75;19.20;;;;;;;13.61;100.00;101796.31;10285464;28;20546;-74
2024/03/20 17:05:46;;;;;;;23.20;17.95;;;;;;;13.47;100.00;101790.88;10270093;28;20067;-74
2024/03/20 17:10:42;;;;;;;23.27;18.08;;;;;;;13.41;100.00;101807.78;10267589;28;20060;-75
2024/03/20 17:15:38;;;;;;;22.05;16.25;;;;;;;13.38;100.00;101802.91;10257383;28;20650;-75
2024/03/20 17:20:33;;;;;;;19.67;17.23;;;;;;;13.31;100.00;101811.59;10247208;28;20045;-75
2024/03/20 17:25:30;;;;;;;25.38;18.17;;;;;;;13.29;100.00;101813.81;10260522;28;20067;-75
2024/03/20 17:30:26;;;;;;;26.73;16.48;;;;;;;13.14;100.00;101814.97;10273543;28;20057;-74
2024/03/20 17:35:22;;;;;;;20.80;16.30;;;;;;;13.19;100.00;101817.59;10264743;28;20111;-74
2024/03/20 17:40:19;;;;;;;22.80;16.08;;;;;;;13.09;100.00;101817.81;10269603;28;20053;-74
2024/03/20 17:45:16;;;;;;;19.52;14.85;;;;;;;13.01;100.00;101818.53;10261020;28;20073;-74
2024/03/20 17:50:11;;;;;;;20.80;15.63;;;;;;;12.75;100.00;101830.03;10264880;28;20611;-74
2024/03/20 17:55:08;;;;;;;23.90;14.80;;;;;;;12.76;100.00;101819.88;10269653;28;20080;-73
2024/03/20 18:00:12;;;;;;;16.17;13.02;;;;;;;12.88;100.00;101827.59;10263710;28;20497;-74
2024/03/20 18:05:10;;;;;;;15.85;13.70;;;;;;;12.81;100.00;101826.09;10261366;28;20091;-74
2024/03/20 18:10:06;;;;;;;17.92;14.90;;;;;;;12.74;100.00;101828.44;10264873;28;20092;-74
2024/03/20 18:15:03;;;;;;;19.08;14.60;;;;;;;12.67;100.00;101828.03;10269594;28;20049;-74
2024/03/20 18:19:59;;;;;;;22.58;14.43;;;;;;;12.79;100.00;101836.56;10265996;28;20072;-74
2024/03/20 18:24:55;;;;;;;22.08;16.60;;;;;;;12.78;100.00;101840.41;10263259;28;20047;-74
2024/03/20 18:29:50;;;;;;;20.17;14.70;;;;;;;12.69;100.00;101836.75;10259585;28;20060;-74
2024/03/20 18:34:46;;;;;;;17.88;13.98;;;;;;;12.68;100.00;101835.13;10256868;28;20041;-75
2024/03/20 18:39:41;;;;;;;19.83;15.50;;;;;;;12.71;100.00;101834.50;10260900;28;20056;-74
2024/03/20 18:44:37;;;;;;;19.60;15.40;;;;;;;12.45;100.00;101831.44;10270599;28;20037;-74
2024/03/20 18:49:33;;;;;;;19.73;13.50;;;;;;;12.54;100.00;101839.81;10259640;28;20057;-74
2024/03/20 18:54:31;;;;;;;20.65;13.73;;;;;;;12.49;100.00;101848.13;10261185;28;20523;-74
2024/03/20 18:59:26;;;;;;;18.30;13.27;;;;;;;12.41;100.00;101847.69;10279766;28;20077;-73
2024/03/20 19:04:23;;;;;;;19.20;14.05;;;;;;;12.37;100.00;101846.69;10279193;28;20433;-74
2024/03/20 19:09:20;;;;;;;16.10;13.18;;;;;;;12.31;100.00;101834.19;10278150;28;20072;-74
2024/03/20 19:14:16;;;;;;;18.30;12.77;;;;;;;12.26;100.00;101839.75;10276563;28;20072;-74
2024/03/20 19:19:11;;;;;;;20.35;12.77;;;;;;;12.23;100.00;101829.41;10268438;28;20107;-74
2024/03/20 19:24:07;;;;;;;18.42;13.73;;;;;;;12.25;100.00;101810.69;10276676;28;20078;-74
2024/03/20 19:29:02;;;;;;;16.45;12.60;;;;;;;12.22;100.00;101805.81;10280649;28;20536;-74
2024/03/20 19:33:58;;;;;;;17.58;13.15;;;;;;;12.20;100.00;101802.56;10266921;28;20044;-75
2024/03/20 19:38:54;;;;;;;17.05;12.90;;;;;;;12.17;100.00;101797.69;10264565;28;20052;-74
2024/03/20 19:43:49;;;;;;;24.77;14.05;;;;;;;12.14;100.00;101792.84;10270247;28;20044;-75
2024/03/20 19:48:45;;;;;;;17.15;13.45;;;;;;;12.14;100.00;101784.59;10269536;28;20052;-74
2024/03/20 19:53:40;;;;;;;17.67;12.95;;;;;;;12.09;100.00;101779.19;10268557;28;20533;-74
2024/03/20 19:58:36;;;;;;;23.17;16.00;;;;;;;12.08;100.00;101777.56;10282990;28;20417;-74
2024/03/20 20:03:32;;;;;;;20.17;13.82;;;;;;;12.05;100.00;101770.78;10273010;28;20557;-74
2024/03/20 20:08:27;;;;;;;21.85;14.95;;;;;;;11.98;100.00;101762.94;10277211;28;20547;-74
2024/03/20 20:13:23;;;;;;;21.05;14.70;;;;;;;11.89;100.00;101770.22;10276874;28;20060;-75
2024/03/20 20:18:18;;;;;;;22.73;14.90;;;;;;;11.93;100.00;101760.31;10280219;28;20048;-74
2024/03/20 20:23:14;;;;;;;21.88;14.77;;;;;;;11.91;100.00;101768.00;10264821;28;20041;-74
2024/03/20 20:28:10;;;;;;;21.45;14.65;;;;;;;11.86;100.00;101765.34;10266538;28;20041;-74
2024/03/20 20:33:05;;;;;;;18.27;14.38;;;;;;;11.88;100.00;101763.13;10283975;28;20131;-74
2024/03/20 20:38:01;;;;;;;19.60;14.73;;;;;;;11.89;100.00;101759.28;10278036;28;20051;-74
2024/03/20 20:42:57;;;;;;;23.42;15.18;;;;;;;11.89;100.00;101763.94;10276396;28;20041;-74
2024/03/20 20:47:53;;;;;;;24.20;16.58;;;;;;;11.85;100.00;101763.69;10274878;28;20056;-75
2024/03/20 20:52:48;;;;;;;22.85;15.20;;;;;;;11.86;100.00;101765.34;10284265;28;20131;-74
2024/03/20 20:57:44;;;;;;;23.33;15.65;;;;;;;11.81;100.00;101773.63;10273858;28;20073;-74
2024/03/20 21:23:36;;;;;;;30.10;18.98;;;;;;;11.74;100.00;101740.31;10275145;28;20084;-73
2024/03/20 21:28:32;;;;;;;22.45;17.08;;;;;;;11.77;100.00;101739.72;10272655;28;20044;-74
2024/03/20 21:33:28;;;;;;;26.92;18.27;;;;;;;11.78;100.00;101724.91;10270525;28;20045;-74
2024/03/20 21:38:23;;;;;;;26.92;18.65;;;;;;;11.74;100.00;101727.44;10284495;28;20067;-74
2024/03/20 21:43:19;;;;;;;26.90;18.48;;;;;;;11.71;100.00;101719.00;10281946;28;20517;-73
2024/03/20 21:48:15;;;;;;;34.72;21.42;;;;;;;11.76;100.00;101718.91;10283290;28;20041;-73
2024/03/20 21:53:11;;;;;;;32.03;21.50;;;;;;;11.69;100.00;101732.19;10279777;28;20064;-73
2024/03/20 21:58:06;;;;;;;36.90;25.88;;;;;;;11.71;100.00;101713.53;10280338;28;20044;-73
2024/03/20 22:03:02;;;;;;;39.92;25.30;;;;;;;11.59;100.00;101701.13;10260096;28;20045;-75
2024/03/20 22:07:57;;;;;;;36.63;23.27;;;;;;;11.50;100.00;101708.41;10261464;28;20045;-74
2024/03/20 22:12:53;;;;;;;41.55;26.85;;;;;;;11.44;100.00;101697.81;10255254;28;20548;-73
2024/03/20 22:17:49;;;;;;;36.17;25.95;;;;;;;11.46;100.00;101704.63;10275241;28;20571;-72
2024/03/20 22:22:47;;;;;;;39.08;26.63;;;;;;;11.46;100.00;101696.41;10270754;28;20052;-73
2024/03/20 22:27:43;;;;;;;44.42;27.90;;;;;;;11.40;100.00;101700.38;10268719;28;20063;-73